createdAt,value
2023-07-15T00:00:04.227Z,994.61
2023-07-15T00:00:35.360Z,994.61
2023-07-15T00:01:07.463Z,994.41
2023-07-15T00:01:35.148Z,994.41
2023-07-15T00:01:55.864Z,994.41
2023-07-15T00:02:27.590Z,994.41
2023-07-15T00:02:59.443Z,994.51
2023-07-15T00:03:31.430Z,994.51
2023-07-15T00:04:03.477Z,994.72
2023-07-15T00:04:35.974Z,994.72
2023-07-15T00:05:07.765Z,994.41
2023-07-15T00:05:35.062Z,994.31
2023-07-15T00:05:55.723Z,994.31
2023-07-15T00:06:28.211Z,994.31
2023-07-15T00:06:59.491Z,994.31
2023-07-15T00:07:31.372Z,994.31
2023-07-15T00:08:03.347Z,994.61
2023-07-15T00:08:36.580Z,994.61
2023-07-15T00:09:07.441Z,994.41
2023-07-15T00:09:35.053Z,994.31
2023-07-15T00:09:55.385Z,994.31
2023-07-15T00:10:27.659Z,994.31
2023-07-15T00:10:59.476Z,994.41
2023-07-15T00:11:31.417Z,994.41
2023-07-15T00:12:03.672Z,994.31
2023-07-15T00:12:35.347Z,994.31
2023-07-15T00:13:07.448Z,994.31
2023-07-15T00:13:35.068Z,994.41
2023-07-15T00:13:55.359Z,994.41
2023-07-15T00:14:27.369Z,994.41
2023-07-15T00:15:00.970Z,994.51
2023-07-15T00:15:31.385Z,994.51
2023-07-15T00:16:03.503Z,994.51
2023-07-15T00:16:35.461Z,994.51
2023-07-15T00:17:07.462Z,994.51
2023-07-15T00:17:35.073Z,994.41
2023-07-15T00:17:55.730Z,994.41
2023-07-15T00:18:27.706Z,994.41
2023-07-15T00:18:59.424Z,994.31
2023-07-15T00:19:31.394Z,994.31
2023-07-15T00:20:03.662Z,994.31
2023-07-15T00:20:35.588Z,994.31
2023-07-15T00:21:07.436Z,994.51
2023-07-15T00:21:35.070Z,994.51
2023-07-15T00:21:55.333Z,994.51
2023-07-15T00:22:27.430Z,994.51
2023-07-15T00:22:59.414Z,994.31
2023-07-15T00:23:31.340Z,994.31
2023-07-15T00:24:03.604Z,994.41
2023-07-15T00:24:36.105Z,994.41
2023-07-15T00:25:07.730Z,994.21
2023-07-15T00:25:35.498Z,994.41
2023-07-15T00:25:55.603Z,994.41
2023-07-15T00:26:27.430Z,994.41
2023-07-15T00:26:59.399Z,994.31
2023-07-15T00:27:31.599Z,994.31
2023-07-15T00:28:03.337Z,994.61
2023-07-15T00:28:35.361Z,994.61
2023-07-15T00:29:07.466Z,994.31
2023-07-15T00:29:35.926Z,994.41
2023-07-15T00:29:55.346Z,994.41
2023-07-15T00:30:28.201Z,994.41
2023-07-15T00:31:00.215Z,994.31
2023-07-15T00:31:31.405Z,994.31
2023-07-15T00:32:03.382Z,994.51
2023-07-15T00:32:35.385Z,994.51
2023-07-15T00:33:07.767Z,994.51
2023-07-15T00:33:35.057Z,994.51
2023-07-15T00:33:55.330Z,994.51
2023-07-15T00:34:27.387Z,994.51
2023-07-15T00:34:59.449Z,994.61
2023-07-15T00:35:31.744Z,994.61
2023-07-15T00:36:03.586Z,994.51
2023-07-15T00:36:35.362Z,994.51
2023-07-15T00:37:07.692Z,994.61
2023-07-15T00:37:35.680Z,994.51
2023-07-15T00:37:55.929Z,994.51
2023-07-15T00:38:27.377Z,994.51
2023-07-15T00:38:59.362Z,994.51
2023-07-15T00:39:31.576Z,994.51
2023-07-15T00:40:03.643Z,994.41
2023-07-15T00:40:37.854Z,994.41
2023-07-15T00:41:08.276Z,994.61
2023-07-15T00:41:35.115Z,994.51
2023-07-15T00:41:55.447Z,994.51
2023-07-15T00:42:27.677Z,994.51
2023-07-15T00:43:00.473Z,994.51
2023-07-15T00:43:33.304Z,994.51
2023-07-15T00:44:03.537Z,994.31
2023-07-15T00:44:35.623Z,994.31
2023-07-15T00:45:09.184Z,994.61
2023-07-15T00:45:35.260Z,994.41
2023-07-15T00:45:56.116Z,994.41
2023-07-15T00:46:28.370Z,994.41
2023-07-15T00:46:59.538Z,994.31
2023-07-15T00:47:31.886Z,994.31
2023-07-15T00:48:06.083Z,994.51
2023-07-15T00:48:35.503Z,994.51
2023-07-15T00:49:07.706Z,994.51
2023-07-15T00:49:35.940Z,994.41
2023-07-15T00:49:55.342Z,994.41
2023-07-15T00:50:27.778Z,994.41
2023-07-15T00:50:59.718Z,994.51
2023-07-15T00:51:32.647Z,994.51
2023-07-15T00:52:03.392Z,994.41
2023-07-15T00:52:35.474Z,994.41
2023-07-15T00:53:07.517Z,994.41
2023-07-15T00:53:35.193Z,994.51
2023-07-15T00:53:55.459Z,994.51
2023-07-15T00:54:27.831Z,994.51
2023-07-15T00:54:59.452Z,994.72
2023-07-15T00:55:31.728Z,994.72
2023-07-15T00:56:04.250Z,994.41
2023-07-15T00:56:35.423Z,994.41
2023-07-15T00:57:07.578Z,994.41
2023-07-15T00:57:35.159Z,994.61
2023-07-15T00:57:55.431Z,994.61
2023-07-15T00:58:27.550Z,994.61
2023-07-15T00:58:59.490Z,994.51
2023-07-15T00:59:31.415Z,994.51
2023-07-15T01:00:04.585Z,994.51
2023-07-15T01:00:35.466Z,994.51
2023-07-15T01:01:07.911Z,994.51
2023-07-15T01:01:35.790Z,994.51
2023-07-15T01:01:55.397Z,994.51
2023-07-15T01:02:28.459Z,994.51
2023-07-15T01:02:59.512Z,994.72
2023-07-15T01:03:31.647Z,994.72
2023-07-15T01:04:03.697Z,994.21
2023-07-15T01:04:35.387Z,994.21
2023-07-15T01:05:07.994Z,994.41
2023-07-15T01:05:36.010Z,994.51
2023-07-15T01:05:55.655Z,994.51
2023-07-15T01:06:27.742Z,994.51
2023-07-15T01:06:59.445Z,994.41
2023-07-15T01:07:31.379Z,994.41
2023-07-15T01:08:03.310Z,994.41
2023-07-15T01:08:35.375Z,994.41
2023-07-15T01:09:07.476Z,994.31
2023-07-15T01:09:35.115Z,994.21
2023-07-15T01:09:55.619Z,994.21
2023-07-15T01:10:27.622Z,994.21
2023-07-15T01:10:59.296Z,994.41
2023-07-15T01:11:31.309Z,994.41
2023-07-15T01:12:04.427Z,994.51
2023-07-15T01:12:35.722Z,994.51
2023-07-15T01:13:07.498Z,994.21
2023-07-15T01:13:35.057Z,994.61
2023-07-15T01:13:55.361Z,994.61
2023-07-15T01:14:27.637Z,994.61
2023-07-15T01:14:59.354Z,994.41
2023-07-15T01:15:31.876Z,994.41
2023-07-15T01:16:03.510Z,994.51
2023-07-15T01:16:35.924Z,994.51
2023-07-15T01:17:07.431Z,994.41
2023-07-15T01:17:35.108Z,994.31
2023-07-15T01:17:55.328Z,994.31
2023-07-15T01:18:28.543Z,994.31
2023-07-15T01:18:59.313Z,994.51
2023-07-15T01:19:31.322Z,994.51
2023-07-15T01:20:03.573Z,994.41
2023-07-15T01:20:35.534Z,994.41
2023-07-15T01:21:07.617Z,994.51
2023-07-15T01:21:36.607Z,994.31
2023-07-15T01:21:55.303Z,994.31
2023-07-15T01:22:27.466Z,994.31
2023-07-15T01:22:59.455Z,994.51
2023-07-15T01:23:31.320Z,994.51
2023-07-15T01:24:03.805Z,994.31
2023-07-15T01:24:35.323Z,994.31
2023-07-15T01:25:08.280Z,994.21
2023-07-15T01:25:35.061Z,994.21
2023-07-15T01:25:55.597Z,994.21
2023-07-15T01:26:27.363Z,994.21
2023-07-15T01:26:59.325Z,994.41
2023-07-15T01:27:31.289Z,994.41
2023-07-15T01:28:04.016Z,994.31
2023-07-15T01:28:35.306Z,994.31
2023-07-15T01:29:07.482Z,994.41
2023-07-15T01:29:35.066Z,994.31
2023-07-15T01:29:55.297Z,994.31
2023-07-15T01:30:28.833Z,994.31
2023-07-15T01:30:59.409Z,994.21
2023-07-15T01:31:31.353Z,994.21
2023-07-15T01:32:03.321Z,994.31
2023-07-15T01:32:35.730Z,994.31
2023-07-15T01:33:07.577Z,994.31
2023-07-15T01:33:35.049Z,994.31
2023-07-15T01:33:55.300Z,994.31
2023-07-15T01:34:28.019Z,994.31
2023-07-15T01:34:59.329Z,994.31
2023-07-15T01:35:32.222Z,994.31
2023-07-15T01:36:03.558Z,994.21
2023-07-15T01:36:35.278Z,994.21
2023-07-15T01:37:07.503Z,994.41
2023-07-15T01:37:37.270Z,994.31
2023-07-15T01:37:55.316Z,994.31
2023-07-15T01:38:27.381Z,994.31
2023-07-15T01:38:59.335Z,994.41
2023-07-15T01:39:31.331Z,994.41
2023-07-15T01:40:03.523Z,994.31
2023-07-15T01:40:35.322Z,994.31
2023-07-15T01:41:07.574Z,994.31
2023-07-15T01:41:35.044Z,994.21
2023-07-15T01:41:55.300Z,994.21
2023-07-15T01:42:27.526Z,994.21
2023-07-15T01:42:59.338Z,994.41
2023-07-15T01:43:31.297Z,994.41
2023-07-15T01:44:03.321Z,994.21
2023-07-15T01:44:35.446Z,994.21
2023-07-15T01:45:08.167Z,994.31
2023-07-15T01:45:35.364Z,994.31
2023-07-15T01:45:55.599Z,994.31
2023-07-15T01:46:28.073Z,994.31
2023-07-15T01:46:59.352Z,994.31
2023-07-15T01:47:31.363Z,994.31
2023-07-15T01:48:03.730Z,994.04
2023-07-15T01:48:35.485Z,994.04
2023-07-15T01:49:07.677Z,994.41
2023-07-15T01:49:37.968Z,994.21
2023-07-15T01:49:55.272Z,994.21
2023-07-15T01:50:27.642Z,994.21
2023-07-15T01:50:59.302Z,994.31
2023-07-15T01:51:31.317Z,994.31
2023-07-15T01:52:03.273Z,994.41
2023-07-15T01:52:35.367Z,994.41
2023-07-15T01:53:07.582Z,994.41
2023-07-15T01:53:35.034Z,994.51
2023-07-15T01:53:55.302Z,994.51
2023-07-15T01:54:27.597Z,994.51
2023-07-15T01:54:59.257Z,994.21
2023-07-15T01:55:32.000Z,994.21
2023-07-15T01:56:04.235Z,994.21
2023-07-15T01:56:35.290Z,994.21
2023-07-15T01:57:07.526Z,994.21
2023-07-15T01:57:35.040Z,994.31
2023-07-15T01:57:55.262Z,994.31
2023-07-15T01:58:27.337Z,994.31
2023-07-15T01:58:59.463Z,994.31
2023-07-15T01:59:31.283Z,994.31
2023-07-15T02:00:04.217Z,994.21
2023-07-15T02:00:35.326Z,994.21
2023-07-15T02:01:07.801Z,994.31
2023-07-15T02:01:35.218Z,994.41
2023-07-15T02:01:55.376Z,994.41
2023-07-15T02:02:28.320Z,994.41
2023-07-15T02:02:59.417Z,994.31
2023-07-15T02:03:31.344Z,994.31
2023-07-15T02:04:03.334Z,994.31
2023-07-15T02:04:35.499Z,994.31
2023-07-15T02:05:08.011Z,994.31
2023-07-15T02:05:37.611Z,994.31
2023-07-15T02:05:55.528Z,994.31
2023-07-15T02:06:27.990Z,994.31
2023-07-15T02:06:59.273Z,994.31
2023-07-15T02:07:31.589Z,994.31
2023-07-15T02:08:03.283Z,994.21
2023-07-15T02:08:35.447Z,994.21
2023-07-15T02:09:07.556Z,994.31
2023-07-15T02:09:35.269Z,994.14
2023-07-15T02:09:55.281Z,994.14
2023-07-15T02:10:27.620Z,994.14
2023-07-15T02:10:59.328Z,994.41
2023-07-15T02:11:31.677Z,994.41
2023-07-15T02:12:04.701Z,994.21
2023-07-15T02:12:35.313Z,994.21
2023-07-15T02:13:07.647Z,994.31
2023-07-15T02:13:35.042Z,994.41
2023-07-15T02:13:55.355Z,994.41
2023-07-15T02:14:27.300Z,994.41
2023-07-15T02:14:59.241Z,994.04
2023-07-15T02:15:31.776Z,994.04
2023-07-15T02:16:03.449Z,994.21
2023-07-15T02:16:35.609Z,994.21
2023-07-15T02:17:07.775Z,994.14
2023-07-15T02:17:35.090Z,994.21
2023-07-15T02:17:55.390Z,994.21
2023-07-15T02:18:28.202Z,994.21
2023-07-15T02:18:59.290Z,994.21
2023-07-15T02:19:31.309Z,994.21
2023-07-15T02:20:03.605Z,994.04
2023-07-15T02:20:35.292Z,994.04
2023-07-15T02:21:07.621Z,994.31
2023-07-15T02:21:37.270Z,994.21
2023-07-15T02:21:55.281Z,994.21
2023-07-15T02:22:27.523Z,994.21
2023-07-15T02:22:59.277Z,994.04
2023-07-15T02:23:31.239Z,994.04
2023-07-15T02:24:03.655Z,994.21
2023-07-15T02:24:35.267Z,994.21
2023-07-15T02:25:08.017Z,994.14
2023-07-15T02:25:35.049Z,994.21
2023-07-15T02:25:55.591Z,994.21
2023-07-15T02:26:27.314Z,994.21
2023-07-15T02:26:59.545Z,994.31
2023-07-15T02:27:31.302Z,994.31
2023-07-15T02:28:03.973Z,994.31
2023-07-15T02:28:35.479Z,994.31
2023-07-15T02:29:07.685Z,994.14
2023-07-15T02:29:35.033Z,994.21
2023-07-15T02:29:55.356Z,994.21
2023-07-15T02:30:28.292Z,994.21
2023-07-15T02:30:59.358Z,994.14
2023-07-15T02:31:31.242Z,994.14
2023-07-15T02:32:03.242Z,994.21
2023-07-15T02:32:35.273Z,994.21
2023-07-15T02:33:07.869Z,994.14
2023-07-15T02:33:35.166Z,994.21
2023-07-15T02:33:55.372Z,994.21
2023-07-15T02:34:28.072Z,994.21
2023-07-15T02:34:59.274Z,994.31
2023-07-15T02:35:31.622Z,994.31
2023-07-15T02:36:03.652Z,994.21
2023-07-15T02:36:35.331Z,994.21
2023-07-15T02:37:07.702Z,993.94
2023-07-15T02:37:36.045Z,994.21
2023-07-15T02:37:55.351Z,994.21
2023-07-15T02:38:27.281Z,994.21
2023-07-15T02:38:59.306Z,994.14
2023-07-15T02:39:31.356Z,994.14
2023-07-15T02:40:03.515Z,994.14
2023-07-15T02:40:35.278Z,994.14
2023-07-15T02:41:07.821Z,994.14
2023-07-15T02:41:35.098Z,993.73
2023-07-15T02:41:55.721Z,993.73
2023-07-15T02:42:27.674Z,993.73
2023-07-15T02:42:59.287Z,994.04
2023-07-15T02:43:31.278Z,994.04
2023-07-15T02:44:03.270Z,994.14
2023-07-15T02:44:35.264Z,994.14
2023-07-15T02:45:08.239Z,994.04
2023-07-15T02:45:35.387Z,994.14
2023-07-15T02:45:55.537Z,994.14
2023-07-15T02:46:28.122Z,994.14
2023-07-15T02:46:59.281Z,994.04
2023-07-15T02:47:31.262Z,994.04
2023-07-15T02:48:03.564Z,994.04
2023-07-15T02:48:35.241Z,994.04
2023-07-15T02:49:10.039Z,993.73
2023-07-15T02:49:35.929Z,993.84
2023-07-15T02:49:55.272Z,993.84
2023-07-15T02:50:27.585Z,993.84
2023-07-15T02:50:59.299Z,993.94
2023-07-15T02:51:31.281Z,993.94
2023-07-15T02:52:03.265Z,993.84
2023-07-15T02:52:35.249Z,993.84
2023-07-15T02:53:07.741Z,993.84
2023-07-15T02:53:35.018Z,993.63
2023-07-15T02:53:55.267Z,993.63
2023-07-15T02:54:27.550Z,993.63
2023-07-15T02:54:59.219Z,993.94
2023-07-15T02:55:31.523Z,993.94
2023-07-15T02:56:03.918Z,994.04
2023-07-15T02:56:35.276Z,994.04
2023-07-15T02:57:07.720Z,993.73
2023-07-15T02:57:35.374Z,993.94
2023-07-15T02:57:55.278Z,993.94
2023-07-15T02:58:27.337Z,993.94
2023-07-15T02:58:59.204Z,993.94
2023-07-15T02:59:31.274Z,993.94
2023-07-15T03:00:04.012Z,994.04
2023-07-15T03:00:35.262Z,994.04
2023-07-15T03:01:07.760Z,993.84
2023-07-15T03:01:35.524Z,993.84
2023-07-15T03:01:55.241Z,993.84
2023-07-15T03:02:28.079Z,993.84
2023-07-15T03:02:59.324Z,993.94
2023-07-15T03:03:31.211Z,993.94
2023-07-15T03:04:03.217Z,993.94
2023-07-15T03:04:36.056Z,993.94
2023-07-15T03:05:08.376Z,993.84
2023-07-15T03:05:35.890Z,993.84
2023-07-15T03:05:55.510Z,993.84
2023-07-15T03:06:27.580Z,993.84
2023-07-15T03:06:59.232Z,993.94
2023-07-15T03:07:31.301Z,993.94
2023-07-15T03:08:03.231Z,993.94
2023-07-15T03:08:35.587Z,993.94
2023-07-15T03:09:07.631Z,993.84
2023-07-15T03:09:35.014Z,993.84
2023-07-15T03:09:55.223Z,993.84
2023-07-15T03:10:27.589Z,993.84
2023-07-15T03:10:59.261Z,993.73
2023-07-15T03:11:31.293Z,993.73
2023-07-15T03:12:04.302Z,993.73
2023-07-15T03:12:35.192Z,993.73
2023-07-15T03:13:07.639Z,993.73
2023-07-15T03:13:35.071Z,993.73
2023-07-15T03:13:55.262Z,993.73
2023-07-15T03:14:27.263Z,993.73
2023-07-15T03:14:59.234Z,993.84
2023-07-15T03:15:31.915Z,993.84
2023-07-15T03:16:03.326Z,993.84
2023-07-15T03:16:35.274Z,993.84
2023-07-15T03:17:07.779Z,993.84
2023-07-15T03:17:35.033Z,993.84
2023-07-15T03:17:55.209Z,993.84
2023-07-15T03:18:28.255Z,993.84
2023-07-15T03:18:59.491Z,993.73
2023-07-15T03:19:31.177Z,993.73
2023-07-15T03:20:03.549Z,993.84
2023-07-15T03:20:35.215Z,993.84
2023-07-15T03:21:07.705Z,993.73
2023-07-15T03:21:37.556Z,993.84
2023-07-15T03:21:55.267Z,993.84
2023-07-15T03:22:27.347Z,993.84
2023-07-15T03:22:59.317Z,993.63
2023-07-15T03:23:31.254Z,993.63
2023-07-15T03:24:03.582Z,993.94
2023-07-15T03:24:35.250Z,993.94
2023-07-15T03:25:08.089Z,993.73
2023-07-15T03:25:35.037Z,993.63
2023-07-15T03:25:55.433Z,993.63
2023-07-15T03:26:27.357Z,993.63
2023-07-15T03:26:59.284Z,993.73
2023-07-15T03:27:31.217Z,993.73
2023-07-15T03:28:03.980Z,993.84
2023-07-15T03:28:35.193Z,993.84
2023-07-15T03:29:07.799Z,993.84
2023-07-15T03:29:35.057Z,993.84
2023-07-15T03:29:55.236Z,993.84
2023-07-15T03:30:28.005Z,993.84
2023-07-15T03:30:59.343Z,993.73
2023-07-15T03:31:31.257Z,993.73
2023-07-15T03:32:03.325Z,993.73
2023-07-15T03:32:35.314Z,993.73
2023-07-15T03:33:07.986Z,994.04
2023-07-15T03:33:35.069Z,993.63
2023-07-15T03:33:55.218Z,993.63
2023-07-15T03:34:28.035Z,993.63
2023-07-15T03:34:59.320Z,993.84
2023-07-15T03:35:31.601Z,993.84
2023-07-15T03:36:03.597Z,993.73
2023-07-15T03:36:35.296Z,993.73
2023-07-15T03:37:07.771Z,993.63
2023-07-15T03:37:36.263Z,993.63
2023-07-15T03:37:55.344Z,993.63
2023-07-15T03:38:27.449Z,993.63
2023-07-15T03:38:59.372Z,993.73
2023-07-15T03:39:31.296Z,993.73
2023-07-15T03:40:03.671Z,993.73
2023-07-15T03:40:35.344Z,993.73
2023-07-15T03:41:07.960Z,993.63
2023-07-15T03:41:35.165Z,993.73
2023-07-15T03:41:55.312Z,993.73
2023-07-15T03:42:27.667Z,993.73
2023-07-15T03:42:59.306Z,993.84
2023-07-15T03:43:31.274Z,993.84
2023-07-15T03:44:04.112Z,993.63
2023-07-15T03:44:35.343Z,993.63
2023-07-15T03:45:08.324Z,993.84
2023-07-15T03:45:35.144Z,993.73
2023-07-15T03:45:55.683Z,993.73
2023-07-15T03:46:27.432Z,993.73
2023-07-15T03:46:59.346Z,993.73
2023-07-15T03:47:31.405Z,993.73
2023-07-15T03:48:03.620Z,993.84
2023-07-15T03:48:35.332Z,993.84
2023-07-15T03:49:07.821Z,993.73
2023-07-15T03:49:35.132Z,993.73
2023-07-15T03:49:55.347Z,993.73
2023-07-15T03:50:28.450Z,993.73
2023-07-15T03:50:59.305Z,993.84
2023-07-15T03:51:31.348Z,993.84
2023-07-15T03:52:03.321Z,993.63
2023-07-15T03:52:35.377Z,993.63
2023-07-15T03:53:07.872Z,993.84
2023-07-15T03:53:40.324Z,993.84
2023-07-15T03:54:11.757Z,993.84
2023-07-15T03:54:35.175Z,993.73
2023-07-15T03:54:59.466Z,993.73
2023-07-15T03:55:31.654Z,993.73
2023-07-15T03:56:03.353Z,993.84
2023-07-15T03:56:35.483Z,993.84
2023-07-15T03:57:07.912Z,993.73
2023-07-15T03:57:35.221Z,993.53
2023-07-15T03:57:55.353Z,993.53
2023-07-15T03:58:27.388Z,993.53
2023-07-15T03:58:59.332Z,993.73
2023-07-15T03:59:31.325Z,993.73
2023-07-15T04:00:07.763Z,993.73
2023-07-15T04:00:35.740Z,993.73
2023-07-15T04:01:08.114Z,993.73
2023-07-15T04:01:35.896Z,993.73
2023-07-15T04:01:55.457Z,993.73
2023-07-15T04:02:26.995Z,993.73
2023-07-15T04:02:58.831Z,993.53
2023-07-15T04:03:30.800Z,993.53
2023-07-15T04:04:02.872Z,993.63
2023-07-15T04:04:34.824Z,993.63
2023-07-15T04:05:07.216Z,993.63
2023-07-15T04:05:34.549Z,993.43
2023-07-15T04:05:55.017Z,993.43
2023-07-15T04:06:29.913Z,993.43
2023-07-15T04:06:59.268Z,993.53
2023-07-15T04:07:31.487Z,993.53
2023-07-15T04:08:03.363Z,993.73
2023-07-15T04:08:35.718Z,993.73
2023-07-15T04:09:07.484Z,993.63
2023-07-15T04:09:35.861Z,993.43
2023-07-15T04:09:55.354Z,993.43
2023-07-15T04:10:27.650Z,993.43
2023-07-15T04:10:59.608Z,993.53
2023-07-15T04:11:31.323Z,993.53
2023-07-15T04:12:03.578Z,993.53
2023-07-15T04:12:35.880Z,993.53
2023-07-15T04:13:07.372Z,993.53
2023-07-15T04:13:35.531Z,993.53
2023-07-15T04:13:55.256Z,993.53
2023-07-15T04:14:27.289Z,993.53
2023-07-15T04:14:59.238Z,993.43
2023-07-15T04:15:31.801Z,993.43
2023-07-15T04:16:04.392Z,993.33
2023-07-15T04:16:35.802Z,993.33
2023-07-15T04:17:07.367Z,993.33
2023-07-15T04:17:35.722Z,993.23
2023-07-15T04:17:55.343Z,993.23
2023-07-15T04:18:28.362Z,993.23
2023-07-15T04:18:59.342Z,993.43
2023-07-15T04:19:31.327Z,993.43
2023-07-15T04:20:03.648Z,993.53
2023-07-15T04:20:35.817Z,993.53
2023-07-15T04:21:07.693Z,993.63
2023-07-15T04:21:35.773Z,993.53
2023-07-15T04:21:55.260Z,993.53
2023-07-15T04:22:28.057Z,993.53
2023-07-15T04:22:59.346Z,993.63
2023-07-15T04:23:31.329Z,993.63
2023-07-15T04:24:03.537Z,993.53
2023-07-15T04:24:35.664Z,993.53
2023-07-15T04:25:07.744Z,993.33
2023-07-15T04:25:36.482Z,993.53
2023-07-15T04:25:55.538Z,993.53
2023-07-15T04:26:27.312Z,993.53
2023-07-15T04:26:59.306Z,993.73
2023-07-15T04:27:31.334Z,993.73
2023-07-15T04:28:03.306Z,993.63
2023-07-15T04:28:35.664Z,993.63
2023-07-15T04:29:07.806Z,993.63
2023-07-15T04:29:35.570Z,993.43
2023-07-15T04:29:55.283Z,993.43
2023-07-15T04:30:28.225Z,993.43
2023-07-15T04:30:59.311Z,993.43
2023-07-15T04:31:31.380Z,993.43
2023-07-15T04:32:04.098Z,993.53
2023-07-15T04:32:35.978Z,993.53
2023-07-15T04:33:07.480Z,993.53
2023-07-15T04:33:35.702Z,993.53
2023-07-15T04:33:55.293Z,993.53
2023-07-15T04:34:27.335Z,993.53
2023-07-15T04:34:59.282Z,993.73
2023-07-15T04:35:31.686Z,993.73
2023-07-15T04:36:04.325Z,993.53
2023-07-15T04:36:35.739Z,993.53
2023-07-15T04:37:07.361Z,993.53
2023-07-15T04:37:35.791Z,993.73
2023-07-15T04:37:55.309Z,993.73
2023-07-15T04:38:27.971Z,993.73
2023-07-15T04:38:59.265Z,993.63
2023-07-15T04:39:31.303Z,993.63
2023-07-15T04:40:03.545Z,993.63
2023-07-15T04:40:35.720Z,993.63
2023-07-15T04:41:07.856Z,993.53
2023-07-15T04:41:37.105Z,993.53
2023-07-15T04:41:55.309Z,993.53
2023-07-15T04:42:27.601Z,993.53
2023-07-15T04:42:59.312Z,993.63
2023-07-15T04:43:31.284Z,993.63
2023-07-15T04:44:03.307Z,993.73
2023-07-15T04:44:35.670Z,993.73
2023-07-15T04:45:07.946Z,993.63
2023-07-15T04:45:35.694Z,993.63
2023-07-15T04:45:55.510Z,993.63
2023-07-15T04:46:28.154Z,993.63
2023-07-15T04:46:59.299Z,993.73
2023-07-15T04:47:31.352Z,993.73
2023-07-15T04:48:03.583Z,993.63
2023-07-15T04:48:35.688Z,993.63
2023-07-15T04:49:07.329Z,993.73
2023-07-15T04:49:37.962Z,993.53
2023-07-15T04:49:55.230Z,993.53
2023-07-15T04:50:27.605Z,993.53
2023-07-15T04:50:59.290Z,993.84
2023-07-15T04:51:31.474Z,993.84
2023-07-15T04:52:03.281Z,993.73
2023-07-15T04:52:35.943Z,993.73
2023-07-15T04:53:07.394Z,993.73
2023-07-15T04:53:35.868Z,993.94
2023-07-15T04:53:55.244Z,993.94
2023-07-15T04:54:27.524Z,993.94
2023-07-15T04:54:59.249Z,993.53
2023-07-15T04:55:31.607Z,993.53
2023-07-15T04:56:04.206Z,993.84
2023-07-15T04:56:35.721Z,993.84
2023-07-15T04:57:07.333Z,993.73
2023-07-15T04:57:35.498Z,993.94
2023-07-15T04:57:55.304Z,993.94
2023-07-15T04:58:27.261Z,993.94
2023-07-15T04:58:59.268Z,993.84
2023-07-15T04:59:31.303Z,993.84
2023-07-15T05:00:05.254Z,993.94
2023-07-15T05:00:35.731Z,993.94
2023-07-15T05:01:07.470Z,994.14
2023-07-15T05:01:36.025Z,993.94
2023-07-15T05:01:55.291Z,993.94
2023-07-15T05:02:29.002Z,993.94
2023-07-15T05:02:59.595Z,994.04
2023-07-15T05:03:31.307Z,994.04
2023-07-15T05:04:03.339Z,994.21
2023-07-15T05:04:35.719Z,994.21
2023-07-15T05:05:07.634Z,994.04
2023-07-15T05:05:36.771Z,994.04
2023-07-15T05:05:55.616Z,994.04
2023-07-15T05:06:27.609Z,994.04
2023-07-15T05:06:59.295Z,993.94
2023-07-15T05:07:39.771Z,993.94
2023-07-15T05:08:03.259Z,993.94
2023-07-15T05:08:35.734Z,993.94
2023-07-15T05:09:07.312Z,993.94
2023-07-15T05:09:35.526Z,993.84
2023-07-15T05:09:55.272Z,993.84
2023-07-15T05:10:27.589Z,993.84
2023-07-15T05:10:59.429Z,993.94
2023-07-15T05:11:31.328Z,993.94
2023-07-15T05:12:04.476Z,993.94
2023-07-15T05:12:35.909Z,993.94
2023-07-15T05:13:07.292Z,994.04
2023-07-15T05:13:35.587Z,994.04
2023-07-15T05:13:55.312Z,994.04
2023-07-15T05:14:27.297Z,994.04
2023-07-15T05:14:59.267Z,993.84
2023-07-15T05:15:31.770Z,993.84
2023-07-15T05:16:03.489Z,994.04
2023-07-15T05:16:35.916Z,994.04
2023-07-15T05:17:07.324Z,993.84
2023-07-15T05:17:35.618Z,993.84
2023-07-15T05:17:55.318Z,993.84
2023-07-15T05:18:28.195Z,993.84
2023-07-15T05:18:59.236Z,993.94
2023-07-15T05:19:31.220Z,993.94
2023-07-15T05:20:03.627Z,993.84
2023-07-15T05:20:35.861Z,993.84
2023-07-15T05:21:07.338Z,993.94
2023-07-15T05:21:36.944Z,993.94
2023-07-15T05:21:55.244Z,993.94
2023-07-15T05:22:27.339Z,993.94
2023-07-15T05:22:59.363Z,993.84
2023-07-15T05:23:31.242Z,993.84
2023-07-15T05:24:03.553Z,993.84
2023-07-15T05:24:35.877Z,993.84
2023-07-15T05:25:07.801Z,993.84
2023-07-15T05:25:35.530Z,993.94
2023-07-15T05:25:55.618Z,993.94
2023-07-15T05:26:27.220Z,993.94
2023-07-15T05:26:59.443Z,994.14
2023-07-15T05:27:31.267Z,994.14
2023-07-15T05:28:04.071Z,994.04
2023-07-15T05:28:35.923Z,994.04
2023-07-15T05:29:07.278Z,993.84
2023-07-15T05:29:35.827Z,993.84
2023-07-15T05:29:55.257Z,993.84
2023-07-15T05:30:28.345Z,993.84
2023-07-15T05:30:59.352Z,994.04
2023-07-15T05:31:32.927Z,994.04
2023-07-15T05:32:03.306Z,993.94
2023-07-15T05:32:35.733Z,993.94
2023-07-15T05:33:07.355Z,993.84
2023-07-15T05:33:36.084Z,993.94
2023-07-15T05:33:55.197Z,993.94
2023-07-15T05:34:28.033Z,993.94
2023-07-15T05:34:59.234Z,993.94
2023-07-15T05:35:31.535Z,993.94
2023-07-15T05:36:03.542Z,993.84
2023-07-15T05:36:36.021Z,993.84
2023-07-15T05:37:07.293Z,993.84
2023-07-15T05:37:37.022Z,993.73
2023-07-15T05:37:55.272Z,993.73
2023-07-15T05:38:27.266Z,993.73
2023-07-15T05:38:59.219Z,993.73
2023-07-15T05:39:31.198Z,993.73
2023-07-15T05:40:03.640Z,993.84
2023-07-15T05:40:35.710Z,993.84
2023-07-15T05:41:07.656Z,993.73
2023-07-15T05:41:35.662Z,993.94
2023-07-15T05:41:55.222Z,993.94
2023-07-15T05:42:27.717Z,993.94
2023-07-15T05:42:59.294Z,993.84
2023-07-15T05:43:31.216Z,993.84
2023-07-15T05:44:04.098Z,993.73
2023-07-15T05:44:35.956Z,993.73
2023-07-15T05:45:08.038Z,993.84
2023-07-15T05:45:35.581Z,993.63
2023-07-15T05:45:55.442Z,993.63
2023-07-15T05:46:27.243Z,993.63
2023-07-15T05:46:59.268Z,993.63
2023-07-15T05:47:31.251Z,993.63
2023-07-15T05:48:03.710Z,993.94
2023-07-15T05:48:35.677Z,993.94
2023-07-15T05:49:07.343Z,993.94
2023-07-15T05:49:35.552Z,993.84
2023-07-15T05:49:55.226Z,993.84
2023-07-15T05:50:28.214Z,993.84
2023-07-15T05:50:59.186Z,993.84
2023-07-15T05:51:31.266Z,993.84
2023-07-15T05:52:03.194Z,993.84
2023-07-15T05:52:35.713Z,993.84
2023-07-15T05:53:07.423Z,993.63
2023-07-15T05:53:35.993Z,993.94
2023-07-15T05:53:55.433Z,993.94
2023-07-15T05:54:27.472Z,993.94
2023-07-15T05:54:59.573Z,993.53
2023-07-15T05:55:31.603Z,993.53
2023-07-15T05:56:03.259Z,993.94
2023-07-15T05:56:36.006Z,993.94
2023-07-15T05:57:07.337Z,993.94
2023-07-15T05:57:35.553Z,993.73
2023-07-15T05:57:55.201Z,993.73
2023-07-15T05:58:27.195Z,993.73
2023-07-15T05:58:59.421Z,993.73
2023-07-15T05:59:31.242Z,993.73
2023-07-15T06:00:07.683Z,993.73
2023-07-15T06:00:35.783Z,993.73
2023-07-15T06:01:07.323Z,993.63
2023-07-15T06:01:35.543Z,993.53
2023-07-15T06:01:55.177Z,993.53
2023-07-15T06:02:27.284Z,993.53
2023-07-15T06:02:59.428Z,993.63
2023-07-15T06:03:31.341Z,993.63
2023-07-15T06:04:03.307Z,993.63
2023-07-15T06:04:35.617Z,993.63
2023-07-15T06:05:07.647Z,993.53
2023-07-15T06:05:35.646Z,993.53
2023-07-15T06:05:55.426Z,993.53
2023-07-15T06:06:28.450Z,993.53
2023-07-15T06:06:59.155Z,993.53
2023-07-15T06:07:31.311Z,993.53
2023-07-15T06:08:03.367Z,993.73
2023-07-15T06:08:35.749Z,993.73
2023-07-15T06:09:07.424Z,993.63
2023-07-15T06:09:36.229Z,993.33
2023-07-15T06:09:55.259Z,993.33
2023-07-15T06:10:27.537Z,993.33
2023-07-15T06:10:59.205Z,993.63
2023-07-15T06:11:31.268Z,993.63
2023-07-15T06:12:03.511Z,993.43
2023-07-15T06:12:35.689Z,993.43
2023-07-15T06:13:07.277Z,993.53
2023-07-15T06:13:35.490Z,993.63
2023-07-15T06:13:55.200Z,993.63